Coloma, MI (49039)

11:05 AM EST on November 28, 2014 (GMT -0500)
Kevin and Patricia's | Change Station
CLOSE
Current Station
Personal Weather Station
Location: Millburg, MI
Elevation: 669 ft
Nearby Weather Stations

Elev 669 ft 42.12 °N, 86.34 °W | Updated 2 seconds ago

Snow
Snow
25.0 °F
Feels Like 15 °F
N
9.8
Wind Variable Wind from South
Gusts 12.5 mph

Today
High -- | Low -- °F
--% Chance of Precip.
Yesterday
High -- | Low -- °F
Precip. -- in
7:50 AM 5:15 PM
Waxing Crescent, 41% visible
Pressure 30.30 in
Visibility 7.0 miles
Clouds Scattered Clouds 3800 ft
Mostly Cloudy 4600 ft
Overcast 8500 ft
Windchill 15 °F
Dew Point 18 °F
Humidity 73%
Rainfall 0.00 in
Snow Depth Not available.
UV 1 out of 12
Pollen .10 out of 12
Air Quality Not available.
Flu Activity Not available.
METAR KBEH 281553Z AUTO 18008KT 7SM SCT038 BKN046 OVC085 M06/M09 A3027 RMK AO2 SNB13E38 SLP261 P0000 T10561094

More Conditions Fewer Conditions

Pressure 30.30 in
Visibility 7.0 miles
Clouds Scattered Clouds 3800 ft
Mostly Cloudy 4600 ft
Overcast 8500 ft
Windchill 15 °F
Dew Point 18 °F
Humidity 73%
Rainfall 0.00 in
Snow Depth Not available.
UV 1 out of 12
Pollen .10 out of 12
Air Quality Not available.
Flu Activity Not available.
METAR KBEH 281553Z AUTO 18008KT 7SM SCT038 BKN046 OVC085 M06/M09 A3027 RMK AO2 SNB13E38 SLP261 P0000 T10561094

More Conditions Fewer Conditions

10-Day Weather Forecast

Almanac

Astronomy

Nov. 28, 2014 Rise Set
Actual Time
Civil Twilight
Nautical Twilight
Astronomical Twilight
Moon
Length of Visible Light
Length of Day
Tomorrow will be .
, % of the Moon is Illuminated

Today's Extremes

State Highs State Lows

Community

WunderPhotos

Upload Photos

1,774,231 photos uploaded!

WunderBlogs® & News

Nearby

Air Quality

  Air Quality AQ Index Pollutant
Not available.

Snow Depth

Station Depth Elevation

Earthquake Activity

City Distance Mag. Time & Date
Minimum magnitude displayed is 2.5.

Coastal Water Temperatures

Place Temperature

Nearby Weather Stations